Time;durP1;ratioP1;P1;durP2;ratioP2;P2;SDS_P1;SDS_P2;PMS_P1;PMS_P2;Temp;Humidity;BMP_temperature;BMP_pressure;BME280_temperature;BME280_humidity;BME280_pressure;Samples;Min_cycle;Max_cycle;Signal;HPM_P1;HPM_P2
2022/10/18 00:01:05;;;;;;;24.80;15.50;;;18.00;58.40;;;;;;4881352;29;20444;-86
2022/10/18 00:03:32;;;;;;;25.83;17.10;;;18.00;58.10;;;;;;4902557;29;20048;-87
2022/10/18 00:05:58;;;;;;;29.35;18.67;;;18.00;57.90;;;;;;4915794;29;20032;-86
2022/10/18 00:08:24;;;;;;;25.45;18.45;;;18.10;58.10;;;;;;4899630;29;20084;-86
2022/10/18 00:10:50;;;;;;;29.60;17.98;;;18.20;58.30;;;;;;4915180;29;20035;-87
2022/10/18 00:13:17;;;;;;;22.70;16.50;;;18.10;58.10;;;;;;4915438;29;20119;-86
2022/10/18 00:15:58;;;;;;;23.83;16.17;;;18.00;58.00;;;;;;4899377;29;20634;-85
2022/10/18 00:18:24;;;;;;;25.33;17.45;;;17.90;57.80;;;;;;4915732;29;20537;-87
2022/10/18 00:21:05;;;;;;;22.88;15.70;;;17.70;57.80;;;;;;4899662;29;20032;-87
2022/10/18 00:23:32;;;;;;;26.88;16.40;;;17.50;58.40;;;;;;4913387;29;20123;-86
2022/10/18 00:26:03;;;;;;;24.98;16.77;;;17.40;58.60;;;;;;4899808;29;20036;-87
2022/10/18 00:28:29;;;;;;;23.17;16.38;;;17.40;58.10;;;;;;4915626;29;20469;-88
2022/10/18 00:30:54;;;;;;;23.45;15.07;;;17.10;58.50;;;;;;4899702;29;20070;-87
2022/10/18 00:33:20;;;;;;;22.52;15.80;;;16.90;58.70;;;;;;4898842;29;20391;-87
2022/10/18 00:35:46;;;;;;;22.85;15.90;;;16.70;59.50;;;;;;4950956;28;20117;-86
2022/10/18 00:38:11;;;;;;;24.02;16.65;;;16.60;59.60;;;;;;4976989;28;20061;-87
2022/10/18 00:40:37;;;;;;;23.50;15.57;;;16.70;59.80;;;;;;4976810;28;20022;-87
2022/10/18 00:43:02;;;;;;;24.10;15.90;;;16.80;59.90;;;;;;4994003;28;20041;-88
2022/10/18 00:45:28;;;;;;;20.35;14.10;;;16.90;59.70;;;;;;5004053;28;20145;-84
2022/10/18 00:48:01;;;;;;;24.08;16.25;;;17.00;59.50;;;;;;5014068;28;20473;-86
2022/10/18 00:50:30;;;;;;;26.02;16.70;;;17.20;59.10;;;;;;4996282;28;20022;-87
2022/10/18 00:53:02;;;;;;;24.77;16.40;;;17.40;58.80;;;;;;4996249;28;20025;-87
2022/10/18 00:55:32;;;;;;;22.13;15.63;;;17.50;58.60;;;;;;4996867;28;20033;-85
2022/10/18 00:57:58;;;;;;;22.57;15.30;;;17.50;58.40;;;;;;5017223;28;20030;-84
2022/10/18 01:00:24;;;;;;;24.75;15.15;;;17.60;58.00;;;;;;5006825;28;20026;-86
2022/10/18 01:02:50;;;;;;;25.48;15.90;;;17.60;57.90;;;;;;5017576;28;20311;-86
2022/10/18 01:05:17;;;;;;;20.88;15.23;;;17.70;58.10;;;;;;5032396;28;20034;-85
2022/10/18 01:08:24;;;;;;;23.67;15.52;;;17.60;58.20;;;;;;5032481;28;20056;-86
2022/10/18 01:11:14;;;;;;;23.08;15.65;;;17.60;57.90;;;;;;4959926;28;20045;-88
2022/10/18 01:14:08;;;;;;;23.80;14.68;;;17.40;57.80;;;;;;4959766;28;20027;-87
2022/10/18 01:16:47;;;;;;;23.70;15.15;;;17.40;57.80;;;;;;4937179;29;20055;-88
2022/10/18 01:19:58;;;;;;;17.92;12.73;;;17.30;57.80;;;;;;4921673;29;20035;-88
2022/10/18 01:22:30;;;;;;;24.13;14.77;;;17.30;57.90;;;;;;4937572;29;20399;-85
2022/10/18 01:25:01;;;;;;;21.10;14.48;;;17.10;57.70;;;;;;4937287;29;20243;-86
2022/10/18 01:27:35;;;;;;;22.15;14.05;;;17.10;57.70;;;;;;4937487;29;20431;-85
2022/10/18 01:30:22;;;;;;;25.75;14.45;;;17.00;57.80;;;;;;4949816;29;20028;-87
2022/10/18 01:32:51;;;;;;;23.55;14.65;;;17.00;57.90;;;;;;4956797;29;20143;-88
2022/10/18 01:35:22;;;;;;;23.92;14.35;;;17.00;58.20;;;;;;4939989;29;20384;-87
2022/10/18 01:37:50;;;;;;;23.40;14.93;;;17.10;58.20;;;;;;4940519;29;20093;-86
2022/10/18 01:40:19;;;;;;;27.30;15.75;;;17.20;58.30;;;;;;4956396;28;20039;-87
2022/10/18 01:42:47;;;;;;;23.38;15.30;;;17.30;58.40;;;;;;4995944;28;20022;-87
2022/10/18 01:45:15;;;;;;;24.95;16.67;;;17.30;58.20;;;;;;4979580;28;20065;-89
2022/10/18 01:47:44;;;;;;;21.45;14.45;;;17.30;57.70;;;;;;4979619;28;20054;-89
2022/10/18 01:50:11;;;;;;;20.90;14.10;;;17.20;57.40;;;;;;4995514;28;20157;-87
2022/10/18 01:52:50;;;;;;;20.40;14.05;;;17.20;57.50;;;;;;4979443;28;20034;-87
2022/10/18 01:55:17;;;;;;;23.77;15.68;;;17.10;57.70;;;;;;4983737;28;20226;-88
2022/10/18 01:58:12;;;;;;;19.83;13.50;;;17.10;57.80;;;;;;4998490;28;20019;-87
2022/10/18 02:00:41;;;;;;;21.73;13.45;;;17.20;57.80;;;;;;4999003;28;20030;-87
2022/10/18 02:03:19;;;;;;;22.42;13.25;;;17.00;59.50;;;;;;4998804;28;20021;-87
2022/10/18 02:06:06;;;;;;;22.02;14.25;;;17.00;60.10;;;;;;4979083;28;20121;-88
2022/10/18 02:08:35;;;;;;;21.67;13.18;;;17.20;58.40;;;;;;4995893;28;20026;-88
2022/10/18 02:11:08;;;;;;;18.42;12.93;;;17.30;57.80;;;;;;4978918;28;20038;-88
2022/10/18 02:13:43;;;;;;;20.67;13.43;;;17.20;58.60;;;;;;4979405;28;20026;-88
2022/10/18 02:16:20;;;;;;;24.90;14.25;;;17.10;59.00;;;;;;4978754;28;20486;-88
2022/10/18 02:18:52;;;;;;;21.55;13.80;;;17.30;57.70;;;;;;4996227;28;20109;-87
2022/10/18 02:21:20;;;;;;;22.58;14.57;;;17.30;57.60;;;;;;4996457;28;20044;-89
2022/10/18 02:23:46;;;;;;;20.75;14.10;;;17.10;57.50;;;;;;4992638;28;20041;-89
2022/10/18 02:26:21;;;;;;;21.38;13.45;;;16.90;57.40;;;;;;4998429;28;20026;-87
2022/10/18 02:36:42;;;;;;;20.38;13.73;;;16.70;58.90;;;;;;651435;23;21639;-84
2022/10/18 02:39:17;;;;;;;24.80;15.38;;;16.90;58.60;;;;;;5016028;28;20056;-85
2022/10/18 02:41:43;;;;;;;20.17;14.40;;;17.00;58.40;;;;;;5017954;28;20072;-87
2022/10/18 02:44:09;;;;;;;23.50;13.77;;;17.00;58.10;;;;;;5035333;28;20029;-89
2022/10/18 02:46:35;;;;;;;20.92;13.15;;;17.10;57.90;;;;;;5017848;28;20045;-89
2022/10/18 02:49:01;;;;;;;22.80;13.93;;;17.10;57.80;;;;;;5017826;28;20025;-90
2022/10/18 02:51:27;;;;;;;19.27;14.00;;;16.90;57.60;;;;;;5017718;28;20088;-89
2022/10/18 02:53:52;;;;;;;22.52;13.75;;;16.70;58.00;;;;;;5018030;28;20024;-89
2022/10/18 02:56:18;;;;;;;18.88;13.48;;;16.80;58.00;;;;;;5014738;28;20065;-90
2022/10/18 02:58:44;;;;;;;21.30;13.82;;;16.80;57.80;;;;;;5015165;28;20029;-88
2022/10/18 03:01:09;;;;;;;22.98;14.30;;;16.80;57.90;;;;;;5015304;28;20472;-89
2022/10/18 03:03:35;;;;;;;23.52;14.70;;;17.00;58.00;;;;;;5015271;28;20080;-89
2022/10/18 03:06:00;;;;;;;19.52;13.68;;;17.00;58.90;;;;;;5015367;28;20021;-91
2022/10/18 03:08:26;;;;;;;22.30;14.15;;;16.90;58.70;;;;;;5012777;28;20035;-90
2022/10/18 03:10:52;;;;;;;23.52;15.50;;;17.00;58.50;;;;;;5017287;28;20030;-90
2022/10/18 03:13:18;;;;;;;28.67;14.98;;;17.10;58.20;;;;;;5034491;28;20045;-90
2022/10/18 03:15:43;;;;;;;21.75;14.32;;;17.00;58.50;;;;;;5017063;28;20224;-89
2022/10/18 03:18:09;;;;;;;21.27;13.98;;;16.90;58.30;;;;;;5016425;28;20365;-87
2022/10/18 03:20:35;;;;;;;22.85;14.02;;;16.90;58.20;;;;;;5014211;28;20480;-85
2022/10/18 03:23:02;;;;;;;19.17;13.07;;;16.90;58.00;;;;;;5017060;28;20017;-90
2022/10/18 03:25:27;;;;;;;23.55;15.13;;;16.80;58.00;;;;;;5016159;28;20026;-85
2022/10/18 03:27:53;;;;;;;21.58;15.13;;;16.70;58.40;;;;;;5026783;28;20197;-88
2022/10/18 03:30:19;;;;;;;19.98;14.30;;;16.80;58.50;;;;;;5034581;28;20380;-89
2022/10/18 03:32:44;;;;;;;25.25;16.02;;;16.90;58.30;;;;;;5016473;28;20025;-88
2022/10/18 03:35:10;;;;;;;19.80;13.40;;;16.90;58.30;;;;;;5033279;28;20342;-91
2022/10/18 03:37:36;;;;;;;20.65;14.45;;;16.80;58.30;;;;;;5016455;28;20096;-86
2022/10/18 03:40:02;;;;;;;18.65;13.23;;;16.60;57.90;;;;;;5016869;28;20358;-91
2022/10/18 03:42:28;;;;;;;23.95;15.07;;;16.40;58.40;;;;;;5016540;28;20025;-88
2022/10/18 03:44:54;;;;;;;19.58;14.35;;;16.50;58.50;;;;;;5016586;28;20389;-87
2022/10/18 03:47:20;;;;;;;25.38;15.88;;;16.50;58.60;;;;;;5000864;28;20025;-87
2022/10/18 03:49:45;;;;;;;23.35;15.88;;;16.60;59.10;;;;;;5034031;28;20029;-87
2022/10/18 03:52:11;;;;;;;29.75;15.98;;;16.80;58.90;;;;;;5033746;28;20076;-89
2022/10/18 03:54:37;;;;;;;25.83;17.25;;;16.70;58.80;;;;;;5034137;28;20033;-90
2022/10/18 03:57:02;;;;;;;21.35;13.57;;;16.70;58.50;;;;;;5000694;28;20473;-90
2022/10/18 03:59:28;;;;;;;21.83;13.98;;;16.70;57.80;;;;;;5016614;28;20048;-90
2022/10/18 04:01:56;;;;;;;19.63;12.68;;;16.50;57.90;;;;;;5031024;28;20021;-86
2022/10/18 04:04:21;;;;;;;24.92;14.32;;;16.40;57.90;;;;;;5033246;28;20456;-91
2022/10/18 04:06:47;;;;;;;24.95;15.75;;;16.30;57.90;;;;;;5016342;28;20024;-89
2022/10/18 04:09:13;;;;;;;24.80;16.60;;;16.30;58.20;;;;;;5012753;28;20479;-89
2022/10/18 04:11:39;;;;;;;22.10;15.07;;;16.40;58.40;;;;;;4997008;28;20030;-90
2022/10/18 04:14:04;;;;;;;29.48;16.27;;;16.40;58.50;;;;;;4997056;28;20112;-85
2022/10/18 04:16:30;;;;;;;22.88;15.02;;;16.40;58.90;;;;;;5014214;28;20044;-91
2022/10/18 04:18:56;;;;;;;30.45;17.40;;;16.40;58.00;;;;;;5004343;28;20025;-85
2022/10/18 04:21:22;;;;;;;29.42;16.48;;;16.30;58.10;;;;;;4997003;28;20051;-89
2022/10/18 04:23:48;;;;;;;23.42;15.52;;;16.20;57.90;;;;;;5028818;28;20368;-92
2022/10/18 04:26:15;;;;;;;23.80;14.98;;;16.00;58.00;;;;;;5034241;28;20033;-91
2022/10/18 04:28:41;;;;;;;19.92;14.57;;;15.90;58.30;;;;;;5010513;28;20033;-91
2022/10/18 04:31:08;;;;;;;23.00;15.07;;;16.00;57.90;;;;;;5016204;28;20595;-84
2022/10/18 04:33:34;;;;;;;27.45;15.38;;;16.00;58.10;;;;;;5000545;28;20518;-89
2022/10/18 04:35:59;;;;;;;23.90;15.35;;;16.10;58.40;;;;;;5000847;28;20022;-89
2022/10/18 04:38:25;;;;;;;24.83;16.60;;;16.20;58.20;;;;;;5011784;28;20499;-90
2022/10/18 04:40:51;;;;;;;24.45;16.65;;;16.30;58.30;;;;;;5020764;28;20088;-90
2022/10/18 04:43:16;;;;;;;23.25;15.95;;;16.40;58.00;;;;;;5026206;28;20030;-84
2022/10/18 04:45:45;;;;;;;24.30;15.38;;;16.40;58.00;;;;;;5019982;28;20120;-90
2022/10/18 04:48:11;;;;;;;24.27;15.57;;;16.30;57.30;;;;;;5019661;28;20065;-91
2022/10/18 04:50:36;;;;;;;24.17;13.82;;;16.20;57.60;;;;;;5018579;28;20103;-89
2022/10/18 04:53:02;;;;;;;22.58;15.05;;;16.10;57.80;;;;;;5015989;28;20075;-91
2022/10/18 04:55:28;;;;;;;20.73;13.77;;;16.10;57.60;;;;;;5019963;28;20031;-92
2022/10/18 04:57:53;;;;;;;22.55;14.05;;;16.00;57.50;;;;;;5037331;28;20029;-91
2022/10/18 05:00:19;;;;;;;21.33;14.70;;;16.00;57.90;;;;;;5036731;28;20433;-83
2022/10/18 05:02:45;;;;;;;22.55;15.20;;;15.90;57.90;;;;;;5018906;28;20013;-87
2022/10/18 05:05:11;;;;;;;23.35;14.75;;;16.00;58.30;;;;;;5035997;28;20164;-87
2022/10/18 05:07:36;;;;;;;21.60;14.45;;;16.00;58.70;;;;;;5026777;28;20372;-84
2022/10/18 05:10:03;;;;;;;25.00;14.52;;;16.20;58.40;;;;;;5036284;28;20025;-87
2022/10/18 05:12:28;;;;;;;18.65;13.20;;;16.10;58.10;;;;;;5038898;28;20021;-89
2022/10/18 05:14:54;;;;;;;22.63;14.35;;;15.90;58.10;;;;;;5029610;28;20475;-92
2022/10/18 05:17:20;;;;;;;21.70;13.25;;;16.00;58.10;;;;;;5036439;28;20022;-90
2022/10/18 05:19:45;;;;;;;18.48;13.45;;;16.00;58.40;;;;;;5018617;28;20032;-86
2022/10/18 05:22:11;;;;;;;20.60;14.15;;;16.00;58.70;;;;;;5029103;28;20364;-90
2022/10/18 05:24:37;;;;;;;23.13;15.25;;;16.00;58.40;;;;;;5036254;28;20029;-84
2022/10/18 05:27:03;;;;;;;22.25;14.55;;;16.10;59.00;;;;;;5035995;28;20017;-90
2022/10/18 05:29:29;;;;;;;27.45;16.33;;;16.30;59.10;;;;;;5020519;28;20017;-83
2022/10/18 05:31:57;;;;;;;23.67;16.08;;;16.50;58.90;;;;;;5017775;28;20032;-89
2022/10/18 05:34:23;;;;;;;21.80;14.80;;;16.70;59.20;;;;;;5017916;28;20476;-91
2022/10/18 05:36:49;;;;;;;18.52;12.40;;;16.70;58.50;;;;;;5018768;28;20108;-88
2022/10/18 05:39:15;;;;;;;19.33;13.18;;;16.70;57.60;;;;;;5018990;28;20080;-92
2022/10/18 05:41:41;;;;;;;21.92;13.43;;;16.50;57.80;;;;;;5038809;28;20063;-85
2022/10/18 05:44:06;;;;;;;20.85;13.95;;;16.40;58.10;;;;;;5020217;28;20041;-89
2022/10/18 05:46:32;;;;;;;19.40;13.25;;;16.40;58.50;;;;;;5018832;28;20014;-84
2022/10/18 05:48:58;;;;;;;22.98;14.15;;;16.40;58.20;;;;;;5035808;28;20383;-91
2022/10/18 05:51:24;;;;;;;28.55;16.50;;;16.40;58.40;;;;;;5036550;28;20471;-85
2022/10/18 05:53:49;;;;;;;24.70;15.90;;;16.50;58.50;;;;;;5034178;28;20364;-90
2022/10/18 05:56:15;;;;;;;24.30;15.80;;;16.60;58.50;;;;;;5022013;28;20079;-90
2022/10/18 05:58:41;;;;;;;28.45;17.33;;;16.70;58.70;;;;;;5036326;28;20025;-90
2022/10/18 06:01:09;;;;;;;26.65;16.85;;;16.80;59.60;;;;;;5021289;28;20020;-91
2022/10/18 06:03:34;;;;;;;31.75;17.70;;;16.90;58.90;;;;;;5017110;28;20032;-87
2022/10/18 06:06:09;;;;;;;27.85;16.98;;;17.00;58.50;;;;;;5017943;28;20025;-89
2022/10/18 06:08:36;;;;;;;28.15;16.20;;;17.00;58.80;;;;;;5033151;28;20048;-90
2022/10/18 06:11:20;;;;;;;26.90;15.70;;;16.90;59.00;;;;;;5034525;28;20356;-90
2022/10/18 06:13:48;;;;;;;31.15;17.73;;;17.00;58.90;;;;;;5031153;28;20025;-90
2022/10/18 06:16:17;;;;;;;29.77;19.48;;;17.10;59.30;;;;;;5034582;28;20053;-90
2022/10/18 06:18:48;;;;;;;28.83;17.92;;;17.30;59.30;;;;;;5032988;28;20403;-90
2022/10/18 06:21:13;;;;;;;31.77;20.65;;;17.30;59.40;;;;;;5031423;28;20024;-86
2022/10/18 06:23:39;;;;;;;32.95;19.70;;;17.40;59.40;;;;;;5025510;28;20029;-89
2022/10/18 06:26:08;;;;;;;29.67;19.80;;;17.60;59.50;;;;;;5034376;28;20100;-91
2022/10/18 06:28:36;;;;;;;29.08;18.17;;;17.70;59.70;;;;;;5016984;28;20032;-90
2022/10/18 06:31:02;;;;;;;33.72;19.67;;;17.80;59.50;;;;;;5034492;28;20017;-91
2022/10/18 06:33:30;;;;;;;29.17;18.27;;;17.80;59.70;;;;;;5017871;28;20044;-92
2022/10/18 06:35:57;;;;;;;29.17;16.17;;;17.90;59.80;;;;;;5018175;28;20362;-93
2022/10/18 06:38:22;;;;;;;27.92;17.77;;;18.00;60.30;;;;;;5017649;28;20050;-93
2022/10/18 06:40:49;;;;;;;29.67;18.23;;;18.10;60.50;;;;;;5030499;28;20074;-92
2022/10/18 06:43:14;;;;;;;27.55;18.20;;;18.20;60.40;;;;;;5020878;28;20056;-86
2022/10/18 06:45:40;;;;;;;30.27;19.95;;;18.30;60.50;;;;;;5017633;28;20065;-89
2022/10/18 06:48:06;;;;;;;25.35;17.10;;;18.50;60.50;;;;;;5020971;28;20423;-89
2022/10/18 06:50:31;;;;;;;26.20;17.17;;;18.70;60.20;;;;;;5017828;28;20115;-91
2022/10/18 06:52:57;;;;;;;26.48;17.00;;;18.70;60.70;;;;;;5016536;28;20079;-91
2022/10/18 06:55:23;;;;;;;23.77;16.10;;;18.80;60.20;;;;;;5034641;28;20017;-84
2022/10/18 06:57:48;;;;;;;23.63;16.25;;;18.90;60.50;;;;;;5014495;28;20037;-91
2022/10/18 07:00:14;;;;;;;24.67;15.75;;;19.00;60.50;;;;;;5016624;28;20060;-90
2022/10/18 07:02:40;;;;;;;20.83;15.15;;;19.00;60.30;;;;;;5017313;28;20056;-89
2022/10/18 07:05:10;;;;;;;22.85;15.98;;;18.80;61.50;;;;;;5034598;28;20040;-90
2022/10/18 07:07:36;;;;;;;25.50;15.82;;;18.90;61.40;;;;;;5016829;28;20014;-92
2022/10/18 07:10:02;;;;;;;22.55;15.32;;;19.20;61.20;;;;;;5017474;28;20448;-91
2022/10/18 07:12:28;;;;;;;22.55;15.05;;;19.40;60.60;;;;;;5017233;28;20385;-86
2022/10/18 07:14:54;;;;;;;23.98;15.57;;;19.50;60.60;;;;;;5017783;28;20480;-91
2022/10/18 07:17:19;;;;;;;24.00;14.50;;;19.60;60.80;;;;;;5017353;28;20023;-87
2022/10/18 07:19:45;;;;;;;21.90;15.38;;;19.70;60.50;;;;;;5018084;28;20034;-94
2022/10/18 07:22:11;;;;;;;21.77;14.90;;;19.90;60.30;;;;;;5017355;28;20017;-95
2022/10/18 07:24:37;;;;;;;24.75;14.95;;;20.00;60.10;;;;;;5005518;28;20029;-92
2022/10/18 07:27:02;;;;;;;21.83;15.63;;;20.20;59.70;;;;;;5023092;28;20089;-93
2022/10/18 07:29:28;;;;;;;22.92;15.45;;;20.40;59.60;;;;;;5019858;28;20358;-87
2022/10/18 07:31:54;;;;;;;22.27;15.15;;;20.40;59.50;;;;;;5035025;28;20028;-92
2022/10/18 07:34:20;;;;;;;23.20;16.10;;;20.50;59.40;;;;;;5031462;28;20381;-95
2022/10/18 07:36:45;;;;;;;20.77;15.20;;;20.50;59.40;;;;;;5018793;28;20033;-91
2022/10/18 07:39:11;;;;;;;22.20;14.43;;;20.10;59.60;;;;;;5018506;28;20543;-92
2022/10/18 07:41:38;;;;;;;19.90;14.52;;;20.00;60.00;;;;;;5022184;28;20024;-93
2022/10/18 07:44:04;;;;;;;25.35;15.10;;;20.30;60.00;;;;;;5017260;28;20037;-92
2022/10/18 07:46:30;;;;;;;21.02;14.90;;;20.60;59.60;;;;;;5018902;28;20087;-94
2022/10/18 07:48:58;;;;;;;19.60;14.43;;;20.80;59.00;;;;;;5017396;28;20025;-91
2022/10/18 07:51:25;;;;;;;18.42;14.27;;;21.00;58.60;;;;;;5020334;28;20029;-91
2022/10/18 07:53:51;;;;;;;21.35;14.65;;;20.90;58.40;;;;;;5017741;28;20488;-87
2022/10/18 07:56:19;;;;;;;24.08;14.60;;;21.10;57.50;;;;;;5013427;28;20060;-88
2022/10/18 07:58:47;;;;;;;20.02;15.15;;;20.90;58.20;;;;;;5017029;28;20021;-90
2022/10/18 08:01:14;;;;;;;18.10;13.77;;;20.50;58.40;;;;;;5015319;28;20032;-87
2022/10/18 08:03:41;;;;;;;18.95;13.80;;;20.70;58.70;;;;;;5007533;28;20029;-89
2022/10/18 08:06:09;;;;;;;18.58;13.18;;;21.10;58.50;;;;;;5017356;28;20019;-91
2022/10/18 08:08:37;;;;;;;18.60;13.75;;;21.10;57.50;;;;;;5016323;28;20033;-87
2022/10/18 08:11:04;;;;;;;18.52;13.48;;;20.70;58.90;;;;;;5000445;28;20095;-85
2022/10/18 08:13:30;;;;;;;22.23;14.38;;;20.60;58.50;;;;;;5016300;28;20024;-83
2022/10/18 08:16:05;;;;;;;20.13;13.75;;;20.20;59.20;;;;;;5015900;28;20132;-87
2022/10/18 08:18:31;;;;;;;18.33;12.77;;;19.80;60.80;;;;;;5016348;28;20942;-87
2022/10/18 08:21:02;;;;;;;18.77;13.05;;;20.30;60.60;;;;;;5017226;28;20112;-89
2022/10/18 08:23:28;;;;;;;24.02;14.00;;;20.80;59.20;;;;;;5016647;28;20025;-81
2022/10/18 08:25:54;;;;;;;19.98;14.25;;;21.00;58.50;;;;;;5015675;28;20380;-90
2022/10/18 08:28:20;;;;;;;19.25;13.95;;;21.20;59.10;;;;;;5015918;28;20025;-87
2022/10/18 08:30:45;;;;;;;21.27;13.40;;;21.40;57.70;;;;;;5016512;28;20460;-85
2022/10/18 08:33:11;;;;;;;20.55;13.57;;;21.50;57.80;;;;;;5015884;28;20029;-92
2022/10/18 08:35:37;;;;;;;18.92;13.25;;;21.80;57.50;;;;;;5016233;28;20125;-83
2022/10/18 08:38:03;;;;;;;16.85;12.75;;;22.20;56.10;;;;;;5002002;28;20046;-84
2022/10/18 08:40:29;;;;;;;17.10;12.70;;;22.10;55.50;;;;;;4993032;28;20105;-84
2022/10/18 08:43:19;;;;;;;20.02;13.23;;;22.10;56.90;;;;;;4992689;28;20011;-87
2022/10/18 08:45:45;;;;;;;18.17;13.20;;;22.20;56.50;;;;;;4993781;28;20117;-87
2022/10/18 08:48:31;;;;;;;17.25;12.80;;;22.30;56.10;;;;;;4993652;28;20113;-86
2022/10/18 08:50:58;;;;;;;15.95;12.55;;;22.20;56.50;;;;;;4993526;28;20120;-90
2022/10/18 08:53:35;;;;;;;17.60;12.15;;;22.40;56.30;;;;;;4993238;28;20026;-90
2022/10/18 08:56:10;;;;;;;17.65;11.95;;;22.60;55.60;;;;;;4993077;28;20037;-86
2022/10/18 08:58:37;;;;;;;16.15;11.88;;;22.50;54.90;;;;;;4992537;28;20050;-88
2022/10/18 09:01:21;;;;;;;17.45;12.00;;;22.70;55.40;;;;;;4993176;28;20030;-87
2022/10/18 09:04:11;;;;;;;17.70;12.13;;;23.20;54.80;;;;;;4992934;28;20118;-88
2022/10/18 09:07:03;;;;;;;;;;;23.10;54.40;;;;;;4993706;28;20435;-94
2022/10/18 09:09:41;;;;;;;17.58;12.18;;;23.30;54.10;;;;;;4937824;29;19910;-88
2022/10/18 09:12:43;;;;;;;16.80;11.70;;;23.50;54.50;;;;;;4937323;29;20113;-85
2022/10/18 09:15:37;;;;;;;16.88;11.65;;;23.50;54.00;;;;;;4937587;29;20042;-95
2022/10/18 09:18:23;;;;;;;16.80;11.68;;;23.50;53.40;;;;;;4940033;29;20070;-88
2022/10/18 09:20:57;;;;;;;16.02;11.27;;;23.00;53.30;;;;;;4940738;29;20035;-93
2022/10/18 09:23:42;;;;;;;17.52;11.85;;;23.00;53.80;;;;;;4940636;29;20031;-86
2022/10/18 09:26:25;;;;;;;17.15;11.70;;;23.30;53.70;;;;;;4940803;28;20423;-86
2022/10/18 09:29:21;;;;;;;15.23;11.27;;;23.70;53.20;;;;;;4941125;29;20031;-92
2022/10/18 09:32:06;;;;;;;15.77;11.00;;;23.80;52.50;;;;;;4940626;29;20042;-88
2022/10/18 09:35:04;;;;;;;15.52;10.77;;;24.00;51.40;;;;;;4940027;29;20035;-86
2022/10/18 09:37:33;;;;;;;14.27;10.50;;;23.80;51.60;;;;;;4937169;29;20047;-89
2022/10/18 09:40:28;;;;;;;14.57;10.60;;;24.10;52.30;;;;;;4921215;28;20122;-85
2022/10/18 09:43:10;;;;;;;18.48;11.40;;;24.50;51.30;;;;;;4920973;29;20154;-87
2022/10/18 09:45:43;;;;;;;17.83;10.00;;;24.80;51.20;;;;;;4934870;28;20034;-88
2022/10/18 09:48:13;;;;;;;13.55;8.85;;;24.50;49.30;;;;;;4995430;28;20023;-86
2022/10/18 09:50:44;;;;;;;15.23;9.15;;;24.30;49.50;;;;;;4995467;28;20025;-84
2022/10/18 09:53:25;;;;;;;19.50;9.40;;;24.00;51.10;;;;;;4995368;28;20031;-87
2022/10/18 09:55:57;;;;;;;13.68;8.90;;;24.30;50.50;;;;;;4995738;28;20030;-88
2022/10/18 09:58:25;;;;;;;13.20;9.45;;;24.70;48.40;;;;;;4996354;28;20026;-85
2022/10/18 10:00:52;;;;;;;12.90;9.55;;;24.90;49.30;;;;;;4995512;28;20019;-90
2022/10/18 10:03:18;;;;;;;12.63;9.57;;;24.60;49.70;;;;;;4996026;28;20039;-95
2022/10/18 10:05:44;;;;;;;14.45;9.63;;;24.70;49.20;;;;;;4996013;28;20374;-87
2022/10/18 10:08:10;;;;;;;16.98;9.43;;;24.90;50.00;;;;;;4995784;28;20149;-90
2022/10/18 10:10:44;;;;;;;12.38;9.23;;;25.20;49.30;;;;;;4995144;28;20029;-87
2022/10/18 10:13:15;;;;;;;14.15;9.65;;;25.50;49.60;;;;;;4995047;28;20110;-92
2022/10/18 10:15:50;;;;;;;15.63;9.68;;;25.70;49.60;;;;;;4995439;28;20373;-86
2022/10/18 10:18:24;;;;;;;15.52;8.77;;;25.80;48.70;;;;;;4995038;28;20369;-87
2022/10/18 10:20:56;;;;;;;14.48;9.68;;;26.00;48.70;;;;;;4996088;28;20057;-90
2022/10/18 10:23:29;;;;;;;15.95;10.05;;;25.50;49.10;;;;;;4994807;28;20033;-83
2022/10/18 10:26:19;;;;;;;20.65;9.05;;;25.50;49.30;;;;;;4995091;28;20069;-85
2022/10/18 10:28:47;;;;;;;12.50;9.07;;;25.40;48.80;;;;;;4995069;28;20029;-86
2022/10/18 10:31:32;;;;;;;15.07;9.63;;;25.20;49.30;;;;;;4994766;28;20076;-87
2022/10/18 10:33:59;;;;;;;13.05;9.70;;;25.10;48.90;;;;;;4994672;28;20054;-85
2022/10/18 10:36:25;;;;;;;14.60;9.27;;;25.00;49.60;;;;;;4995501;28;20018;-85
2022/10/18 10:39:17;;;;;;;17.17;9.70;;;25.40;49.50;;;;;;4994239;28;20049;-82
2022/10/18 10:41:53;;;;;;;16.75;9.50;;;25.60;48.70;;;;;;4994086;28;20041;-87
2022/10/18 10:44:22;;;;;;;13.63;9.45;;;25.80;48.60;;;;;;4994955;28;20023;-89
2022/10/18 10:46:49;;;;;;;15.43;9.60;;;25.60;47.30;;;;;;4994982;28;20109;-83
2022/10/18 10:49:39;;;;;;;16.23;9.95;;;25.40;48.20;;;;;;4994594;28;20053;-85
2022/10/18 10:52:05;;;;;;;12.97;8.40;;;25.50;48.20;;;;;;4995267;28;20022;-84
2022/10/18 10:54:35;;;;;;;17.33;8.35;;;26.00;47.60;;;;;;4994313;28;20023;-89
2022/10/18 10:57:04;;;;;;;12.70;8.48;;;26.90;47.30;;;;;;4994183;28;20022;-88
2022/10/18 10:59:42;;;;;;;13.30;8.18;;;27.60;46.40;;;;;;4994057;28;20077;-86
2022/10/18 11:02:14;;;;;;;11.98;8.43;;;27.50;46.70;;;;;;4994030;28;20030;-84
2022/10/18 11:04:41;;;;;;;12.90;8.85;;;27.20;46.60;;;;;;4994237;28;20500;-82
2022/10/18 11:07:32;;;;;;;15.73;8.95;;;26.70;47.20;;;;;;4994915;28;20495;-84
2022/10/18 11:10:09;;;;;;;12.52;8.13;;;26.50;47.90;;;;;;4994098;28;20076;-89
2022/10/18 11:12:42;;;;;;;16.85;8.57;;;26.50;47.50;;;;;;4993850;28;20022;-87
2022/10/18 11:15:34;;;;;;;13.80;8.52;;;25.80;47.70;;;;;;4993819;28;20076;-82
2022/10/18 11:18:30;;;;;;;12.80;7.60;;;25.80;48.30;;;;;;4994848;28;20054;-87
2022/10/18 11:21:11;;;;;;;14.70;6.82;;;25.80;47.70;;;;;;4993904;28;20022;-88
2022/10/18 11:23:37;;;;;;;;;;;25.50;47.10;;;;;;4994564;28;20038;-87
2022/10/18 11:26:08;;;;;;;12.52;6.10;;;25.50;47.00;;;;;;4993874;28;20333;-85
2022/10/18 11:29:11;;;;;;;8.98;5.88;;;25.70;45.20;;;;;;4993786;28;20030;-85
2022/10/18 11:31:55;;;;;;;9.48;5.85;;;25.70;47.00;;;;;;4994393;28;20331;-89
2022/10/18 11:34:50;;;;;;;10.73;5.90;;;25.80;45.60;;;;;;4993272;28;20380;-87
2022/10/18 11:37:45;;;;;;;9.10;6.15;;;25.90;45.70;;;;;;5001650;28;20049;-83
2022/10/18 11:40:27;;;;;;;12.23;6.00;;;25.70;45.70;;;;;;5017354;28;20029;-87
2022/10/18 11:43:01;;;;;;;8.07;5.65;;;25.60;45.50;;;;;;5017202;28;20124;-84
2022/10/18 11:45:50;;;;;;;10.45;6.03;;;25.40;45.00;;;;;;5016824;28;20067;-79
2022/10/18 11:48:37;;;;;;;8.93;6.13;;;25.50;45.50;;;;;;5016547;28;20502;-85
2022/10/18 11:51:08;;;;;;;10.95;6.00;;;25.50;46.10;;;;;;5016853;28;20026;-90
2022/10/18 11:53:45;;;;;;;9.15;5.40;;;25.30;45.40;;;;;;5016769;28;20029;-89
2022/10/18 11:57:00;;;;;;;8.38;5.53;;;25.10;45.10;;;;;;5016079;28;20029;-84
2022/10/18 11:59:47;;;;;;;9.50;5.20;;;25.40;45.20;;;;;;5015876;28;20025;-86
2022/10/18 12:02:50;;;;;;;9.45;5.60;;;25.20;44.80;;;;;;5017113;28;20017;-87
2022/10/18 12:05:16;;;;;;;8.48;6.20;;;25.30;44.90;;;;;;5016767;28;20124;-81
2022/10/18 12:08:12;;;;;;;8.77;5.90;;;25.40;44.70;;;;;;5033657;28;20408;-89
2022/10/18 12:10:41;;;;;;;9.35;5.32;;;25.40;45.30;;;;;;5016896;28;20026;-87
2022/10/18 12:13:22;;;;;;;8.45;6.00;;;25.30;44.20;;;;;;5016143;28;20076;-84
2022/10/18 12:15:48;;;;;;;;;;;25.00;44.60;;;;;;5016474;28;20472;-84
2022/10/18 12:18:17;;;;;;;9.48;5.80;;;25.10;44.80;;;;;;5015941;28;19904;-88
2022/10/18 12:20:53;;;;;;;11.80;6.03;;;24.80;44.90;;;;;;5016038;28;20045;-90
2022/10/18 12:23:58;;;;;;;9.40;6.00;;;24.90;44.90;;;;;;5033211;28;20017;-90
2022/10/18 12:26:27;;;;;;;8.93;5.30;;;24.90;45.00;;;;;;4972815;28;20089;-91
2022/10/18 12:29:16;;;;;;;11.38;5.50;;;24.90;44.90;;;;;;4973201;28;20019;-89
2022/10/18 12:31:43;;;;;;;10.15;5.70;;;24.90;44.70;;;;;;4962383;28;20027;-89
2022/10/18 12:34:26;;;;;;;8.43;5.25;;;25.50;44.70;;;;;;4956380;28;20037;-87
2022/10/18 12:37:10;;;;;;;16.13;5.70;;;25.60;43.80;;;;;;4957256;28;20022;-94
2022/10/18 12:39:50;;;;;;;10.18;5.90;;;25.40;44.40;;;;;;4956465;28;20045;-87
2022/10/18 12:42:29;;;;;;;11.43;5.97;;;25.50;44.00;;;;;;4973775;28;20027;-84
2022/10/18 12:45:12;;;;;;;13.60;6.95;;;25.40;44.00;;;;;;4972616;28;20035;-94
2022/10/18 12:47:39;;;;;;;8.65;5.72;;;25.60;44.20;;;;;;4972729;28;20362;-84
2022/10/18 12:50:26;;;;;;;10.52;6.65;;;25.80;44.00;;;;;;4972471;28;20039;-88
2022/10/18 12:53:25;;;;;;;9.63;6.63;;;26.10;44.00;;;;;;4962335;28;20125;-86
2022/10/18 12:55:52;;;;;;;9.07;5.80;;;26.00;43.30;;;;;;4976516;28;20034;-91
2022/10/18 12:58:29;;;;;;;11.35;5.47;;;25.90;43.30;;;;;;5034895;28;20025;-86
2022/10/18 13:01:01;;;;;;;9.55;5.80;;;26.10;43.00;;;;;;5019038;28;20112;-83